sensor_id;sensor_type;location;lat;lon;timestamp;pressure;altitude;pressure_sealevel;temperature;humidity
33625;BME280;19962;47.820;1.930;2023-05-14T00:00:21;100765.75;;;15.69;81.69
33625;BME280;19962;47.820;1.930;2023-05-14T00:02:47;100757.88;;;15.82;81.56
33625;BME280;19962;47.820;1.930;2023-05-14T00:05:13;100765.22;;;15.93;81.34
33625;BME280;19962;47.820;1.930;2023-05-14T00:07:40;100764.00;;;15.84;82.06
33625;BME280;19962;47.820;1.930;2023-05-14T00:10:06;100770.47;;;15.95;81.90
33625;BME280;19962;47.820;1.930;2023-05-14T00:12:32;100769.03;;;16.14;80.97
33625;BME280;19962;47.820;1.930;2023-05-14T00:14:58;100765.19;;;16.20;80.45
33625;BME280;19962;47.820;1.930;2023-05-14T00:17:25;100764.13;;;16.26;80.91
33625;BME280;19962;47.820;1.930;2023-05-14T00:19:51;100775.13;;;16.16;81.11
33625;BME280;19962;47.820;1.930;2023-05-14T00:22:17;100761.81;;;16.13;81.34
33625;BME280;19962;47.820;1.930;2023-05-14T00:24:43;100759.72;;;16.25;80.83
33625;BME280;19962;47.820;1.930;2023-05-14T00:27:09;100759.28;;;16.38;80.15
33625;BME280;19962;47.820;1.930;2023-05-14T00:29:36;100757.63;;;16.37;80.19
33625;BME280;19962;47.820;1.930;2023-05-14T00:32:03;100758.72;;;16.36;79.89
33625;BME280;19962;47.820;1.930;2023-05-14T00:34:29;100748.03;;;16.44;79.47
33625;BME280;19962;47.820;1.930;2023-05-14T00:36:55;100754.50;;;16.28;80.06
33625;BME280;19962;47.820;1.930;2023-05-14T00:39:21;100757.69;;;16.15;80.79
33625;BME280;19962;47.820;1.930;2023-05-14T00:41:47;100760.25;;;16.22;80.71
33625;BME280;19962;47.820;1.930;2023-05-14T00:44:13;100763.19;;;16.10;81.37
33625;BME280;19962;47.820;1.930;2023-05-14T00:46:39;100755.75;;;16.16;81.04
33625;BME280;19962;47.820;1.930;2023-05-14T00:49:05;100754.63;;;16.17;80.90
33625;BME280;19962;47.820;1.930;2023-05-14T00:51:31;100749.91;;;16.12;81.09
33625;BME280;19962;47.820;1.930;2023-05-14T00:53:58;100750.13;;;16.06;81.26
33625;BME280;19962;47.820;1.930;2023-05-14T00:56:24;100753.44;;;16.08;81.10
33625;BME280;19962;47.820;1.930;2023-05-14T00:58:51;100747.72;;;15.88;82.14
33625;BME280;19962;47.820;1.930;2023-05-14T01:01:17;100744.78;;;15.73;82.75
33625;BME280;19962;47.820;1.930;2023-05-14T01:03:43;100744.59;;;15.79;82.34
33625;BME280;19962;47.820;1.930;2023-05-14T01:06:42;100737.69;;;15.82;82.85
33625;BME280;19962;47.820;1.930;2023-05-14T01:12:33;100739.75;;;15.70;82.97
33625;BME280;19962;47.820;1.930;2023-05-14T01:17:40;100738.41;;;15.72;82.45
33625;BME280;19962;47.820;1.930;2023-05-14T01:20:08;100746.38;;;15.69;82.16
33625;BME280;19962;47.820;1.930;2023-05-14T01:22:35;100739.44;;;15.66;82.37
33625;BME280;19962;47.820;1.930;2023-05-14T01:25:01;100743.41;;;15.54;82.67
33625;BME280;19962;47.820;1.930;2023-05-14T01:27:40;100748.38;;;15.52;82.83
33625;BME280;19962;47.820;1.930;2023-05-14T01:33:01;100742.59;;;15.53;82.50
33625;BME280;19962;47.820;1.930;2023-05-14T01:35:29;100740.84;;;15.47;82.75
33625;BME280;19962;47.820;1.930;2023-05-14T01:37:57;100740.22;;;15.62;82.06
33625;BME280;19962;47.820;1.930;2023-05-14T01:40:25;100739.75;;;15.70;81.54
33625;BME280;19962;47.820;1.930;2023-05-14T01:42:52;100746.91;;;15.66;81.66
33625;BME280;19962;47.820;1.930;2023-05-14T01:45:20;100744.97;;;15.45;82.06
33625;BME280;19962;47.820;1.930;2023-05-14T01:47:46;100738.69;;;15.49;81.98
33625;BME280;19962;47.820;1.930;2023-05-14T01:50:12;100732.00;;;15.45;82.00
33625;BME280;19962;47.820;1.930;2023-05-14T01:52:39;100736.16;;;15.48;82.18
33625;BME280;19962;47.820;1.930;2023-05-14T01:55:05;100735.38;;;15.52;81.87
33625;BME280;19962;47.820;1.930;2023-05-14T01:57:31;100727.03;;;15.69;81.36
33625;BME280;19962;47.820;1.930;2023-05-14T01:59:57;100722.41;;;15.53;81.40
33625;BME280;19962;47.820;1.930;2023-05-14T02:02:23;100719.50;;;15.64;80.98
33625;BME280;19962;47.820;1.930;2023-05-14T02:04:50;100726.19;;;15.68;80.79
33625;BME280;19962;47.820;1.930;2023-05-14T02:07:16;100727.44;;;15.56;80.88
33625;BME280;19962;47.820;1.930;2023-05-14T02:09:42;100728.09;;;15.68;81.04
33625;BME280;19962;47.820;1.930;2023-05-14T02:12:09;100732.41;;;15.59;80.69
33625;BME280;19962;47.820;1.930;2023-05-14T02:14:36;100730.63;;;15.48;81.29
33625;BME280;19962;47.820;1.930;2023-05-14T02:17:02;100727.69;;;15.54;81.27
33625;BME280;19962;47.820;1.930;2023-05-14T02:19:28;100718.28;;;15.55;80.69
33625;BME280;19962;47.820;1.930;2023-05-14T02:21:54;100725.38;;;15.46;81.08
33625;BME280;19962;47.820;1.930;2023-05-14T02:24:21;100721.69;;;15.41;81.40
33625;BME280;19962;47.820;1.930;2023-05-14T02:26:47;100725.63;;;15.45;81.27
33625;BME280;19962;47.820;1.930;2023-05-14T02:29:13;100716.88;;;15.53;80.64
33625;BME280;19962;47.820;1.930;2023-05-14T02:31:39;100716.75;;;15.43;80.87
33625;BME280;19962;47.820;1.930;2023-05-14T02:34:05;100717.69;;;15.32;81.43
33625;BME280;19962;47.820;1.930;2023-05-14T02:36:32;100720.97;;;15.29;81.42
33625;BME280;19962;47.820;1.930;2023-05-14T02:38:59;100721.47;;;15.26;81.78
33625;BME280;19962;47.820;1.930;2023-05-14T02:41:29;100724.47;;;15.41;81.33
33625;BME280;19962;47.820;1.930;2023-05-14T02:43:55;100725.63;;;15.45;80.71
33625;BME280;19962;47.820;1.930;2023-05-14T02:46:21;100723.63;;;15.40;80.91
33625;BME280;19962;47.820;1.930;2023-05-14T02:48:47;100717.84;;;15.42;80.61
33625;BME280;19962;47.820;1.930;2023-05-14T02:51:14;100721.53;;;15.31;81.02
33625;BME280;19962;47.820;1.930;2023-05-14T02:53:41;100718.22;;;15.29;81.13
33625;BME280;19962;47.820;1.930;2023-05-14T02:56:07;100718.06;;;15.19;81.30
33625;BME280;19962;47.820;1.930;2023-05-14T02:58:33;100723.00;;;15.17;81.43
33625;BME280;19962;47.820;1.930;2023-05-14T03:00:59;100713.50;;;15.08;81.86
33625;BME280;19962;47.820;1.930;2023-05-14T03:03:26;100728.16;;;15.08;81.69
33625;BME280;19962;47.820;1.930;2023-05-14T03:05:52;100730.19;;;14.96;82.31
33625;BME280;19962;47.820;1.930;2023-05-14T03:08:18;100725.09;;;14.88;82.56
33625;BME280;19962;47.820;1.930;2023-05-14T03:10:44;100740.81;;;14.88;82.68
33625;BME280;19962;47.820;1.930;2023-05-14T03:13:10;100728.03;;;14.82;83.14
33625;BME280;19962;47.820;1.930;2023-05-14T03:15:36;100728.78;;;14.94;82.91
33625;BME280;19962;47.820;1.930;2023-05-14T03:18:03;100736.63;;;15.02;82.36
33625;BME280;19962;47.820;1.930;2023-05-14T03:20:29;100738.13;;;15.09;81.66
33625;BME280;19962;47.820;1.930;2023-05-14T03:22:55;100738.47;;;14.96;82.32
33625;BME280;19962;47.820;1.930;2023-05-14T03:25:21;100736.94;;;15.05;82.10
33625;BME280;19962;47.820;1.930;2023-05-14T03:27:47;100744.81;;;15.13;81.76
33625;BME280;19962;47.820;1.930;2023-05-14T03:30:13;100738.50;;;15.18;81.33
33625;BME280;19962;47.820;1.930;2023-05-14T03:32:40;100739.41;;;15.23;81.01
33625;BME280;19962;47.820;1.930;2023-05-14T03:35:06;100736.88;;;15.38;80.20
33625;BME280;19962;47.820;1.930;2023-05-14T03:37:32;100731.50;;;15.32;80.14
33625;BME280;19962;47.820;1.930;2023-05-14T03:39:58;100732.84;;;15.29;80.00
33625;BME280;19962;47.820;1.930;2023-05-14T03:42:24;100738.44;;;15.13;80.87
33625;BME280;19962;47.820;1.930;2023-05-14T03:44:51;100734.72;;;15.24;80.53
33625;BME280;19962;47.820;1.930;2023-05-14T03:47:18;100740.75;;;14.99;81.75
33625;BME280;19962;47.820;1.930;2023-05-14T03:49:44;100733.88;;;15.02;82.28
33625;BME280;19962;47.820;1.930;2023-05-14T03:52:10;100728.41;;;15.07;82.29
33625;BME280;19962;47.820;1.930;2023-05-14T03:54:36;100736.41;;;15.25;81.74
33625;BME280;19962;47.820;1.930;2023-05-14T03:57:03;100737.22;;;15.42;80.81
33625;BME280;19962;47.820;1.930;2023-05-14T03:59:29;100740.47;;;15.39;81.12
33625;BME280;19962;47.820;1.930;2023-05-14T04:01:55;100751.88;;;15.04;82.08
33625;BME280;19962;47.820;1.930;2023-05-14T04:04:21;100749.50;;;15.13;82.29
33625;BME280;19962;47.820;1.930;2023-05-14T04:06:48;100748.91;;;15.11;82.80
33625;BME280;19962;47.820;1.930;2023-05-14T04:09:14;100749.50;;;15.13;82.59
33625;BME280;19962;47.820;1.930;2023-05-14T04:11:40;100747.69;;;15.02;83.07
33625;BME280;19962;47.820;1.930;2023-05-14T04:14:06;100747.38;;;15.20;82.64
33625;BME280;19962;47.820;1.930;2023-05-14T04:16:32;100736.91;;;15.22;82.15
33625;BME280;19962;47.820;1.930;2023-05-14T04:19:01;100735.34;;;15.09;82.67
33625;BME280;19962;47.820;1.930;2023-05-14T04:21:27;100735.53;;;15.24;82.38
33625;BME280;19962;47.820;1.930;2023-05-14T04:23:53;100740.88;;;15.09;82.79
33625;BME280;19962;47.820;1.930;2023-05-14T04:26:19;100738.94;;;15.10;82.55
33625;BME280;19962;47.820;1.930;2023-05-14T04:28:46;100738.78;;;15.00;82.81
33625;BME280;19962;47.820;1.930;2023-05-14T04:31:12;100738.56;;;15.23;82.40
33625;BME280;19962;47.820;1.930;2023-05-14T04:33:38;100732.16;;;15.17;82.15
33625;BME280;19962;47.820;1.930;2023-05-14T04:36:05;100729.03;;;15.14;82.27
33625;BME280;19962;47.820;1.930;2023-05-14T04:38:31;100740.63;;;15.11;82.22
33625;BME280;19962;47.820;1.930;2023-05-14T04:40:57;100742.78;;;15.09;82.47
33625;BME280;19962;47.820;1.930;2023-05-14T04:43:23;100752.31;;;15.18;81.80
33625;BME280;19962;47.820;1.930;2023-05-14T04:45:50;100755.00;;;15.13;82.27
33625;BME280;19962;47.820;1.930;2023-05-14T04:48:17;100759.09;;;14.89;83.47
33625;BME280;19962;47.820;1.930;2023-05-14T04:50:43;100762.06;;;15.04;83.08
33625;BME280;19962;47.820;1.930;2023-05-14T04:53:10;100761.50;;;15.02;82.76
33625;BME280;19962;47.820;1.930;2023-05-14T04:55:36;100763.91;;;15.15;82.17
33625;BME280;19962;47.820;1.930;2023-05-14T04:58:02;100765.13;;;15.24;82.16
33625;BME280;19962;47.820;1.930;2023-05-14T05:00:28;100772.47;;;14.97;83.32
33625;BME280;19962;47.820;1.930;2023-05-14T05:02:55;100775.06;;;14.87;83.55
33625;BME280;19962;47.820;1.930;2023-05-14T05:05:22;100774.31;;;14.91;83.49
33625;BME280;19962;47.820;1.930;2023-05-14T05:07:48;100776.72;;;15.04;83.06
33625;BME280;19962;47.820;1.930;2023-05-14T05:10:15;100772.50;;;15.18;82.38
33625;BME280;19962;47.820;1.930;2023-05-14T05:12:41;100764.28;;;15.23;82.31
33625;BME280;19962;47.820;1.930;2023-05-14T05:15:07;100772.06;;;15.26;81.70
33625;BME280;19962;47.820;1.930;2023-05-14T05:17:34;100772.81;;;15.22;81.87
33625;BME280;19962;47.820;1.930;2023-05-14T05:20:01;100765.56;;;15.16;82.15
33625;BME280;19962;47.820;1.930;2023-05-14T05:22:27;100771.13;;;14.99;82.54
33625;BME280;19962;47.820;1.930;2023-05-14T05:24:53;100770.78;;;14.96;83.02
33625;BME280;19962;47.820;1.930;2023-05-14T05:27:19;100772.31;;;14.87;83.50
33625;BME280;19962;47.820;1.930;2023-05-14T05:29:46;100774.97;;;14.98;83.39
33625;BME280;19962;47.820;1.930;2023-05-14T05:32:12;100777.66;;;14.93;83.24
33625;BME280;19962;47.820;1.930;2023-05-14T05:34:40;100774.50;;;14.85;83.62
33625;BME280;19962;47.820;1.930;2023-05-14T05:37:06;100777.22;;;15.01;83.28
33625;BME280;19962;47.820;1.930;2023-05-14T05:39:34;100780.50;;;14.98;83.36
33625;BME280;19962;47.820;1.930;2023-05-14T05:42:01;100780.50;;;14.98;83.16
33625;BME280;19962;47.820;1.930;2023-05-14T05:44:27;100787.53;;;15.06;83.18
33625;BME280;19962;47.820;1.930;2023-05-14T05:46:53;100791.34;;;15.21;82.50
33625;BME280;19962;47.820;1.930;2023-05-14T05:49:21;100785.03;;;14.88;83.41
33625;BME280;19962;47.820;1.930;2023-05-14T05:51:48;100791.47;;;14.77;84.11
33625;BME280;19962;47.820;1.930;2023-05-14T05:54:14;100786.53;;;14.79;84.40
33625;BME280;19962;47.820;1.930;2023-05-14T05:56:40;100796.94;;;14.72;85.09
33625;BME280;19962;47.820;1.930;2023-05-14T05:59:06;100796.00;;;14.83;84.72
33625;BME280;19962;47.820;1.930;2023-05-14T06:01:33;100803.44;;;14.99;84.48
33625;BME280;19962;47.820;1.930;2023-05-14T06:03:59;100803.59;;;15.09;83.94
33625;BME280;19962;47.820;1.930;2023-05-14T06:06:25;100799.91;;;15.20;83.36
33625;BME280;19962;47.820;1.930;2023-05-14T06:08:51;100796.09;;;15.26;82.88
33625;BME280;19962;47.820;1.930;2023-05-14T06:11:17;100806.06;;;15.27;82.56
33625;BME280;19962;47.820;1.930;2023-05-14T06:13:43;100804.19;;;15.11;83.72
33625;BME280;19962;47.820;1.930;2023-05-14T06:16:09;100808.28;;;14.92;84.43
33625;BME280;19962;47.820;1.930;2023-05-14T06:18:35;100809.31;;;14.86;84.62
33625;BME280;19962;47.820;1.930;2023-05-14T06:21:01;100818.81;;;15.11;84.37
33625;BME280;19962;47.820;1.930;2023-05-14T06:23:28;100819.81;;;15.22;83.36
33625;BME280;19962;47.820;1.930;2023-05-14T06:25:54;100815.28;;;15.32;82.66
33625;BME280;19962;47.820;1.930;2023-05-14T06:28:20;100814.44;;;15.32;82.47
33625;BME280;19962;47.820;1.930;2023-05-14T06:30:49;100822.00;;;15.20;82.96
33625;BME280;19962;47.820;1.930;2023-05-14T06:33:15;100820.66;;;15.22;83.05
33625;BME280;19962;47.820;1.930;2023-05-14T06:35:41;100824.16;;;15.18;83.43
33625;BME280;19962;47.820;1.930;2023-05-14T06:38:07;100820.31;;;15.19;83.21
33625;BME280;19962;47.820;1.930;2023-05-14T06:40:33;100824.09;;;15.13;83.48
33625;BME280;19962;47.820;1.930;2023-05-14T06:42:59;100830.38;;;15.25;83.07
33625;BME280;19962;47.820;1.930;2023-05-14T06:45:26;100842.63;;;14.96;84.21
33625;BME280;19962;47.820;1.930;2023-05-14T06:47:52;100837.19;;;14.84;85.22
33625;BME280;19962;47.820;1.930;2023-05-14T06:50:18;100832.72;;;15.00;84.37
33625;BME280;19962;47.820;1.930;2023-05-14T06:52:44;100829.22;;;15.04;84.20
33625;BME280;19962;47.820;1.930;2023-05-14T06:55:10;100829.19;;;15.21;83.52
33625;BME280;19962;47.820;1.930;2023-05-14T06:57:36;100824.00;;;15.24;83.45
33625;BME280;19962;47.820;1.930;2023-05-14T07:00:02;100819.09;;;14.93;84.41
33625;BME280;19962;47.820;1.930;2023-05-14T07:02:29;100825.88;;;15.02;84.47
33625;BME280;19962;47.820;1.930;2023-05-14T07:04:55;100827.97;;;15.12;84.07
33625;BME280;19962;47.820;1.930;2023-05-14T07:07:21;100836.56;;;15.15;84.09
33625;BME280;19962;47.820;1.930;2023-05-14T07:09:47;100839.16;;;15.22;83.46
33625;BME280;19962;47.820;1.930;2023-05-14T07:12:13;100833.38;;;15.40;82.81
33625;BME280;19962;47.820;1.930;2023-05-14T07:14:39;100833.72;;;15.27;83.18
33625;BME280;19962;47.820;1.930;2023-05-14T07:17:05;100840.59;;;15.08;83.78
33625;BME280;19962;47.820;1.930;2023-05-14T07:19:32;100835.91;;;15.25;83.08
33625;BME280;19962;47.820;1.930;2023-05-14T07:21:58;100845.47;;;15.34;82.92
33625;BME280;19962;47.820;1.930;2023-05-14T07:24:24;100842.09;;;15.15;83.27
33625;BME280;19962;47.820;1.930;2023-05-14T07:26:50;100843.53;;;15.18;83.16
33625;BME280;19962;47.820;1.930;2023-05-14T07:29:16;100839.94;;;15.34;82.35
33625;BME280;19962;47.820;1.930;2023-05-14T07:31:42;100841.91;;;15.38;82.30
33625;BME280;19962;47.820;1.930;2023-05-14T07:34:08;100841.81;;;15.50;82.04
33625;BME280;19962;47.820;1.930;2023-05-14T07:36:36;100845.25;;;15.57;81.37
33625;BME280;19962;47.820;1.930;2023-05-14T07:39:02;100833.31;;;15.56;81.19
33625;BME280;19962;47.820;1.930;2023-05-14T07:41:28;100838.28;;;15.54;81.03
33625;BME280;19962;47.820;1.930;2023-05-14T07:43:54;100847.59;;;15.32;82.22
33625;BME280;19962;47.820;1.930;2023-05-14T07:46:21;100851.63;;;15.41;81.79
33625;BME280;19962;47.820;1.930;2023-05-14T07:48:49;100853.53;;;15.57;80.98
33625;BME280;19962;47.820;1.930;2023-05-14T07:51:15;100849.03;;;15.51;81.12
33625;BME280;19962;47.820;1.930;2023-05-14T07:53:42;100854.00;;;15.16;82.22
33625;BME280;19962;47.820;1.930;2023-05-14T07:56:08;100855.31;;;15.30;82.33
33625;BME280;19962;47.820;1.930;2023-05-14T07:58:34;100851.13;;;15.27;81.93
33625;BME280;19962;47.820;1.930;2023-05-14T08:01:00;100853.59;;;15.24;82.28
33625;BME280;19962;47.820;1.930;2023-05-14T08:03:28;100858.50;;;15.38;82.00
33625;BME280;19962;47.820;1.930;2023-05-14T08:05:55;100852.56;;;15.30;82.08
33625;BME280;19962;47.820;1.930;2023-05-14T08:08:21;100855.75;;;15.38;81.84
33625;BME280;19962;47.820;1.930;2023-05-14T08:10:47;100859.19;;;15.45;81.31
33625;BME280;19962;47.820;1.930;2023-05-14T08:13:13;100859.19;;;15.45;81.47
33625;BME280;19962;47.820;1.930;2023-05-14T08:15:39;100855.50;;;15.23;82.88
33625;BME280;19962;47.820;1.930;2023-05-14T08:18:05;100861.69;;;15.47;82.04
33625;BME280;19962;47.820;1.930;2023-05-14T08:20:31;100859.50;;;15.49;81.23
33625;BME280;19962;47.820;1.930;2023-05-14T08:22:57;100860.47;;;15.21;82.29
33625;BME280;19962;47.820;1.930;2023-05-14T08:25:24;100850.81;;;15.24;82.23
33625;BME280;19962;47.820;1.930;2023-05-14T08:27:50;100853.97;;;15.32;82.08
33625;BME280;19962;47.820;1.930;2023-05-14T08:30:18;100862.84;;;14.52;85.33
33625;BME280;19962;47.820;1.930;2023-05-14T08:32:45;100858.53;;;14.89;84.36
33625;BME280;19962;47.820;1.930;2023-05-14T08:35:11;100862.88;;;15.18;83.11
33625;BME280;19962;47.820;1.930;2023-05-14T08:37:37;100855.34;;;15.13;82.66
33625;BME280;19962;47.820;1.930;2023-05-14T08:40:03;100862.06;;;15.34;82.20
33625;BME280;19962;47.820;1.930;2023-05-14T08:42:30;100864.47;;;15.47;81.27
33625;BME280;19962;47.820;1.930;2023-05-14T08:45:00;100868.22;;;15.41;80.86
33625;BME280;19962;47.820;1.930;2023-05-14T08:47:28;100875.41;;;15.25;81.93
33625;BME280;19962;47.820;1.930;2023-05-14T08:50:05;100870.41;;;15.39;81.42
33625;BME280;19962;47.820;1.930;2023-05-14T08:52:33;100868.91;;;15.31;81.38
33625;BME280;19962;47.820;1.930;2023-05-14T08:55:03;100867.03;;;15.53;81.02
33625;BME280;19962;47.820;1.930;2023-05-14T08:57:31;100874.19;;;15.33;81.29
33625;BME280;19962;47.820;1.930;2023-05-14T08:59:58;100876.75;;;15.56;80.88
33625;BME280;19962;47.820;1.930;2023-05-14T09:02:27;100869.88;;;15.58;80.02
33625;BME280;19962;47.820;1.930;2023-05-14T09:04:59;100877.38;;;15.25;81.77
33625;BME280;19962;47.820;1.930;2023-05-14T09:07:26;100872.31;;;15.55;81.40
33625;BME280;19962;47.820;1.930;2023-05-14T09:09:52;100867.06;;;15.75;80.15
33625;BME280;19962;47.820;1.930;2023-05-14T09:12:19;100870.28;;;15.88;79.32
33625;BME280;19962;47.820;1.930;2023-05-14T09:14:46;100867.00;;;15.91;78.63
33625;BME280;19962;47.820;1.930;2023-05-14T09:17:12;100871.31;;;15.82;79.14
33625;BME280;19962;47.820;1.930;2023-05-14T09:19:39;100874.00;;;15.77;78.93
33625;BME280;19962;47.820;1.930;2023-05-14T09:22:08;100870.59;;;15.92;78.38
33625;BME280;19962;47.820;1.930;2023-05-14T09:24:36;100872.53;;;15.91;78.29
33625;BME280;19962;47.820;1.930;2023-05-14T09:27:04;100877.31;;;15.96;77.75
33625;BME280;19962;47.820;1.930;2023-05-14T09:29:31;100864.03;;;15.98;78.14
33625;BME280;19962;47.820;1.930;2023-05-14T09:31:58;100863.91;;;15.88;78.47
33625;BME280;19962;47.820;1.930;2023-05-14T09:34:32;100870.16;;;16.00;78.11
33625;BME280;19962;47.820;1.930;2023-05-14T09:37:00;100879.47;;;15.94;78.22
33625;BME280;19962;47.820;1.930;2023-05-14T09:39:27;100873.16;;;15.77;78.33
33625;BME280;19962;47.820;1.930;2023-05-14T09:41:54;100882.78;;;15.91;77.96
33625;BME280;19962;47.820;1.930;2023-05-14T09:44:21;100879.94;;;15.48;79.24
33625;BME280;19962;47.820;1.930;2023-05-14T09:46:48;100880.44;;;15.45;79.22
33625;BME280;19962;47.820;1.930;2023-05-14T09:49:15;100884.53;;;15.59;78.79
33625;BME280;19962;47.820;1.930;2023-05-14T09:51:41;100881.31;;;15.67;78.80
33625;BME280;19962;47.820;1.930;2023-05-14T09:54:08;100884.44;;;15.70;78.24
33625;BME280;19962;47.820;1.930;2023-05-14T09:56:36;100882.94;;;15.63;78.54
33625;BME280;19962;47.820;1.930;2023-05-14T09:59:02;100885.44;;;15.64;78.53
33625;BME280;19962;47.820;1.930;2023-05-14T10:01:30;100885.50;;;15.69;78.53
33625;BME280;19962;47.820;1.930;2023-05-14T10:03:57;100886.31;;;15.86;78.41
33625;BME280;19962;47.820;1.930;2023-05-14T10:06:26;100888.03;;;15.92;77.72
33625;BME280;19962;47.820;1.930;2023-05-14T10:08:58;100885.91;;;15.99;77.42
33625;BME280;19962;47.820;1.930;2023-05-14T10:11:30;100889.47;;;15.95;77.69
33625;BME280;19962;47.820;1.930;2023-05-14T10:16:49;100893.19;;;14.96;80.89
33625;BME280;19962;47.820;1.930;2023-05-14T10:19:17;100890.88;;;15.38;80.46
33625;BME280;19962;47.820;1.930;2023-05-14T10:21:51;100885.84;;;15.73;79.25
33625;BME280;19962;47.820;1.930;2023-05-14T10:24:18;100876.19;;;15.97;78.43
33625;BME280;19962;47.820;1.930;2023-05-14T10:26:45;100886.38;;;16.13;77.42
33625;BME280;19962;47.820;1.930;2023-05-14T10:29:12;100886.84;;;15.67;78.35
33625;BME280;19962;47.820;1.930;2023-05-14T10:31:52;100888.28;;;15.69;79.04
33625;BME280;19962;47.820;1.930;2023-05-14T10:37:15;100894.63;;;15.48;78.48
33625;BME280;19962;47.820;1.930;2023-05-14T10:42:28;100886.41;;;15.75;78.54
33625;BME280;19962;47.820;1.930;2023-05-14T10:45:04;100884.00;;;16.00;77.54
33625;BME280;19962;47.820;1.930;2023-05-14T10:47:34;100884.31;;;16.03;77.26
33625;BME280;19962;47.820;1.930;2023-05-14T10:50:02;100888.50;;;16.06;76.62
33625;BME280;19962;47.820;1.930;2023-05-14T10:52:30;100886.22;;;16.03;76.78
33625;BME280;19962;47.820;1.930;2023-05-14T10:55:05;100883.47;;;16.03;77.01
33625;BME280;19962;47.820;1.930;2023-05-14T10:57:37;100884.38;;;15.87;77.20
33625;BME280;19962;47.820;1.930;2023-05-14T11:00:05;100882.72;;;15.86;77.33
33625;BME280;19962;47.820;1.930;2023-05-14T11:02:43;100874.41;;;15.86;77.74
33625;BME280;19962;47.820;1.930;2023-05-14T11:05:10;100869.88;;;16.01;76.70
33625;BME280;19962;47.820;1.930;2023-05-14T11:10:11;100864.78;;;15.72;78.16
33625;BME280;19962;47.820;1.930;2023-05-14T11:12:42;100869.25;;;15.94;77.56
33625;BME280;19962;47.820;1.930;2023-05-14T11:15:19;100864.84;;;16.20;76.93
33625;BME280;19962;47.820;1.930;2023-05-14T11:17:47;100864.09;;;16.24;76.10
33625;BME280;19962;47.820;1.930;2023-05-14T11:20:14;100863.44;;;15.74;77.61
33625;BME280;19962;47.820;1.930;2023-05-14T11:22:42;100854.81;;;15.92;77.30
33625;BME280;19962;47.820;1.930;2023-05-14T11:25:09;100861.91;;;16.05;77.16
33625;BME280;19962;47.820;1.930;2023-05-14T11:27:39;100849.72;;;16.27;76.42
33625;BME280;19962;47.820;1.930;2023-05-14T11:30:13;100853.31;;;16.28;76.12
33625;BME280;19962;47.820;1.930;2023-05-14T11:32:39;100849.44;;;16.02;76.33
33625;BME280;19962;47.820;1.930;2023-05-14T11:35:06;100844.03;;;15.91;76.69
33625;BME280;19962;47.820;1.930;2023-05-14T11:37:32;100849.25;;;16.09;76.55
33625;BME280;19962;47.820;1.930;2023-05-14T11:39:59;100846.47;;;16.09;76.57
33625;BME280;19962;47.820;1.930;2023-05-14T11:42:26;100844.31;;;16.16;76.49
33625;BME280;19962;47.820;1.930;2023-05-14T11:44:53;100844.50;;;16.31;76.51
33625;BME280;19962;47.820;1.930;2023-05-14T11:47:20;100850.97;;;16.15;76.14
33625;BME280;19962;47.820;1.930;2023-05-14T11:49:47;100841.88;;;16.19;76.50
33625;BME280;19962;47.820;1.930;2023-05-14T11:52:15;100835.22;;;16.42;76.06
33625;BME280;19962;47.820;1.930;2023-05-14T11:54:44;100840.34;;;16.55;75.20
33625;BME280;19962;47.820;1.930;2023-05-14T11:57:20;100833.47;;;16.62;74.71
33625;BME280;19962;47.820;1.930;2023-05-14T11:59:47;100837.06;;;16.58;75.01
33625;BME280;19962;47.820;1.930;2023-05-14T12:02:16;100841.19;;;16.34;75.15
33625;BME280;19962;47.820;1.930;2023-05-14T12:04:43;100842.97;;;16.40;75.49
33625;BME280;19962;47.820;1.930;2023-05-14T12:07:17;100837.59;;;16.33;75.81
33625;BME280;19962;47.820;1.930;2023-05-14T12:09:45;100834.75;;;16.50;75.11
33625;BME280;19962;47.820;1.930;2023-05-14T12:12:18;100829.59;;;16.63;74.88
33625;BME280;19962;47.820;1.930;2023-05-14T12:14:44;100832.66;;;16.62;74.49
33625;BME280;19962;47.820;1.930;2023-05-14T12:17:19;100829.56;;;16.58;74.86
33625;BME280;19962;47.820;1.930;2023-05-14T12:19:49;100826.59;;;16.65;74.92
33625;BME280;19962;47.820;1.930;2023-05-14T12:22:20;100825.38;;;16.56;74.91
33625;BME280;19962;47.820;1.930;2023-05-14T12:24:54;100829.13;;;16.40;75.81
33625;BME280;19962;47.820;1.930;2023-05-14T12:27:24;100825.97;;;16.58;74.74
33625;BME280;19962;47.820;1.930;2023-05-14T12:30:01;100823.69;;;16.50;74.84
33625;BME280;19962;47.820;1.930;2023-05-14T12:32:34;100822.88;;;16.54;74.73
33625;BME280;19962;47.820;1.930;2023-05-14T12:35:00;100816.34;;;16.65;74.63
33625;BME280;19962;47.820;1.930;2023-05-14T12:37:27;100822.78;;;16.44;75.44
33625;BME280;19962;47.820;1.930;2023-05-14T12:39:53;100817.16;;;16.66;74.96
33625;BME280;19962;47.820;1.930;2023-05-14T12:42:19;100809.53;;;16.78;74.39
33625;BME280;19962;47.820;1.930;2023-05-14T12:44:45;100816.72;;;16.79;74.25
33625;BME280;19962;47.820;1.930;2023-05-14T12:47:11;100822.81;;;16.76;74.49
33625;BME280;19962;47.820;1.930;2023-05-14T12:49:38;100811.06;;;16.64;74.74
33625;BME280;19962;47.820;1.930;2023-05-14T12:52:04;100822.72;;;16.66;74.85
33625;BME280;19962;47.820;1.930;2023-05-14T12:54:31;100817.28;;;16.76;74.65
33625;BME280;19962;47.820;1.930;2023-05-14T12:56:57;100810.63;;;16.77;74.53
33625;BME280;19962;47.820;1.930;2023-05-14T12:59:24;100811.56;;;16.87;74.07
33625;BME280;19962;47.820;1.930;2023-05-14T13:01:50;100809.59;;;16.88;73.75
33625;BME280;19962;47.820;1.930;2023-05-14T13:04:16;100811.19;;;16.79;74.25
33625;BME280;19962;47.820;1.930;2023-05-14T13:06:42;100812.25;;;16.73;74.50
33625;BME280;19962;47.820;1.930;2023-05-14T13:09:08;100810.16;;;16.85;73.92